Portada
METAR-TAF:

METAR-TAF

Aeroports :

Libreville, Gabon

latitud: 00-27N, longitud: 009-25E, altitud: 12 m

Observació

L'informe es va fer fa 31 minuts, a les 21:30 UTC
Vent 4 kt del Sud/Sud-Oest, variant entre Sud i Oest/Sud-Oest
Temperatura 26°C
Humitat 84%
Pressió 1013 hPa
Visibilitat 10 km o més
Escasses núvols a una alçada de 1200 ft

METAR: FOOL 232130Z 21004KT 180V240 9999 FEW012 26/23 Q1013 NOSIG

Hora: 23:01 (22:01 UTC)

Pronòstic

L'informe es va fer fa 5 hores i 1 minuts, a les 17:00 UTC
Pronòstic vàlid del 23 a les 18 UTC al 24 a les 24 UTC
Vent 7 kt del Sud-Oest
Visibilitat 10 km o més
Núvols disperses a una alçada de 1000 ft
Cel ennuvolat a una alçada de 3000 ft
Temporalment
l' 23 a les 23 UTC al 24 a les 09 UTC
Cel ennuvolat a una alçada de 800 ft
Cel cobert a una alçada de 2600 ft

TAF: FOOL 231700Z 2318/2424 22007KT 9999 SCT010 BKN030 TEMPO 2323/2409 BKN008 OVC026

Observacions i pronòstics meteorològics de més de 4000 aeroports (METAR i TAF).

Les estacions disponibles són els punts grocs i vermells al mapa.

Posi el ratolí al punt desitjat per veure el nom de l'estació.

Feu clic per veure les observacions i els pronòstics meteorològics.

Per canviar el mapa: feu clic els botons verds amb una creu de color negre per apropar; al botó verd amb un guió per allunyar la imatge; o en les fletxes verdes per a mapes adjacents.


METAR-TAF: